createdAt,value
2022-10-05T00:00:53.451Z,32.92
2022-10-05T00:03:22.547Z,33.20
2022-10-05T00:05:49.728Z,33.88
2022-10-05T00:08:25.046Z,53.28
2022-10-05T00:10:53.098Z,56.50
2022-10-05T00:13:22.765Z,35.13
2022-10-05T00:15:50.879Z,35.47
2022-10-05T00:18:20.733Z,33.60
2022-10-05T00:20:48.813Z,35.05
2022-10-05T00:23:25.633Z,37.08
2022-10-05T00:25:52.749Z,33.95
2022-10-05T00:28:26.979Z,36.05
2022-10-05T00:31:01.004Z,35.78
2022-10-05T00:33:28.661Z,54.53
2022-10-05T00:35:55.850Z,36.30
2022-10-05T00:38:23.477Z,34.60
2022-10-05T00:41:16.515Z,55.05
2022-10-05T00:44:08.488Z,55.30
2022-10-05T00:47:04.574Z,56.00
2022-10-05T00:49:45.551Z,32.33
2022-10-05T00:52:32.513Z,33.83
2022-10-05T00:55:18.369Z,34.17
2022-10-05T00:58:30.920Z,34.53
2022-10-05T01:01:39.546Z,36.17
2022-10-05T01:04:28.895Z,34.70
2022-10-05T01:07:23.465Z,35.15
2022-10-05T01:10:09.858Z,33.33
2022-10-05T01:12:43.337Z,35.80
2022-10-05T01:15:22.349Z,35.42
2022-10-05T01:17:56.604Z,33.60
2022-10-05T01:20:40.616Z,34.80
2022-10-05T01:23:28.720Z,36.90
2022-10-05T01:26:04.501Z,35.05
2022-10-05T01:28:42.668Z,33.40
2022-10-05T01:31:26.263Z,33.17
2022-10-05T01:34:13.254Z,33.78
2022-10-05T01:36:49.476Z,35.47
2022-10-05T01:39:54.848Z,34.88
2022-10-05T01:42:27.565Z,52.83
2022-10-05T01:45:16.745Z,31.95
2022-10-05T01:47:58.600Z,32.10
2022-10-05T01:50:51.999Z,31.90
2022-10-05T01:53:45.063Z,33.10
2022-10-05T01:56:22.604Z,30.92
2022-10-05T01:58:52.657Z,30.27
2022-10-05T02:01:49.938Z,28.33
2022-10-05T02:07:41.641Z,30.83
2022-10-05T02:10:27.795Z,32.17
2022-10-05T02:13:02.584Z,48.65
2022-10-05T02:15:40.542Z,30.45
2022-10-05T02:18:14.137Z,31.38
2022-10-05T02:20:42.907Z,31.98
2022-10-05T02:23:19.321Z,30.90
2022-10-05T02:25:49.411Z,28.70
2022-10-05T02:28:26.972Z,49.00
2022-10-05T02:31:17.647Z,28.90
2022-10-05T02:33:46.446Z,29.90
2022-10-05T02:36:29.523Z,31.13
2022-10-05T02:39:21.607Z,30.63
2022-10-05T02:41:53.420Z,29.60
2022-10-05T02:44:31.943Z,28.25
2022-10-05T02:47:42.507Z,28.85
2022-10-05T02:50:39.404Z,29.02
2022-10-05T02:53:21.587Z,30.02
2022-10-05T02:55:51.772Z,30.20
2022-10-05T02:58:27.025Z,29.38
2022-10-05T03:01:14.450Z,28.40
2022-10-05T03:06:26.962Z,28.80
2022-10-05T03:09:05.034Z,28.55
2022-10-05T03:12:01.065Z,46.03
2022-10-05T03:14:38.920Z,44.58
2022-10-05T03:17:30.304Z,29.80
2022-10-05T03:20:09.151Z,28.50
2022-10-05T03:22:42.843Z,43.53
2022-10-05T03:25:27.934Z,42.22
2022-10-05T03:28:21.616Z,28.52
2022-10-05T03:30:51.709Z,25.98
2022-10-05T03:33:39.539Z,27.52
2022-10-05T03:36:25.097Z,27.67
2022-10-05T03:38:52.102Z,26.20
2022-10-05T03:42:00.344Z,26.13
2022-10-05T03:44:53.931Z,27.15
2022-10-05T03:47:47.808Z,25.35
2022-10-05T03:50:38.402Z,26.75
2022-10-05T03:53:13.310Z,26.75
2022-10-05T03:55:43.532Z,40.35
2022-10-05T03:58:27.344Z,25.52
2022-10-05T04:01:02.328Z,39.58
2022-10-05T04:03:38.335Z,37.80
2022-10-05T04:06:24.057Z,23.17
2022-10-05T04:08:59.232Z,23.73
2022-10-05T04:11:38.732Z,24.40
2022-10-05T04:14:15.431Z,23.80
2022-10-05T04:16:47.385Z,24.58
2022-10-05T04:19:16.335Z,22.35
2022-10-05T04:22:09.801Z,22.55
2022-10-05T04:24:42.152Z,22.98
2022-10-05T04:27:18.357Z,25.70
2022-10-05T04:30:34.376Z,36.15
2022-10-05T04:33:02.187Z,24.38
2022-10-05T04:35:41.667Z,24.90
2022-10-05T04:38:28.767Z,23.15
2022-10-05T04:41:05.449Z,37.85
2022-10-05T04:43:51.267Z,25.80
2022-10-05T04:49:22.728Z,23.23
2022-10-05T04:52:08.320Z,24.30
2022-10-05T04:54:56.754Z,24.73
2022-10-05T04:57:25.719Z,25.38
2022-10-05T05:00:22.159Z,23.45
2022-10-05T05:03:08.941Z,24.17
2022-10-05T05:06:18.230Z,38.55
2022-10-05T05:09:18.759Z,37.13
2022-10-05T05:12:20.867Z,35.50
2022-10-05T05:15:16.065Z,37.65
2022-10-05T05:18:25.992Z,23.83
2022-10-05T05:21:11.744Z,22.63
2022-10-05T05:24:10.625Z,35.20
2022-10-05T05:27:09.912Z,22.20
2022-10-05T05:30:07.064Z,23.90
2022-10-05T05:32:56.874Z,22.13
2022-10-05T05:38:31.731Z,20.15
2022-10-05T05:41:30.575Z,22.20
2022-10-05T05:44:15.536Z,20.70
2022-10-05T05:47:31.264Z,34.10
2022-10-05T05:50:23.222Z,21.38
2022-10-05T05:53:06.396Z,20.35
2022-10-05T05:55:40.555Z,22.05
2022-10-05T05:58:17.146Z,20.33
2022-10-05T06:01:20.218Z,21.08
2022-10-05T06:04:19.527Z,20.60
2022-10-05T06:06:53.032Z,33.05
2022-10-05T06:09:28.381Z,21.00
2022-10-05T06:12:16.559Z,21.33
2022-10-05T06:14:47.969Z,22.30
2022-10-05T06:17:24.679Z,19.52
2022-10-05T06:19:54.743Z,20.15
2022-10-05T06:22:44.736Z,19.10
2022-10-05T06:25:11.838Z,20.13
2022-10-05T06:28:01.712Z,20.45
2022-10-05T06:30:51.979Z,29.98
2022-10-05T06:33:47.919Z,18.85
2022-10-05T06:36:27.806Z,18.52
2022-10-05T06:39:13.000Z,18.95
2022-10-05T06:42:17.718Z,18.58
2022-10-05T06:45:43.841Z,18.23
2022-10-05T06:48:56.718Z,18.90
2022-10-05T06:51:50.447Z,17.48
2022-10-05T06:54:44.919Z,16.88
2022-10-05T06:57:27.508Z,16.52
2022-10-05T07:00:01.852Z,17.08
2022-10-05T07:03:00.545Z,16.63
2022-10-05T07:05:58.016Z,16.90
2022-10-05T07:08:44.441Z,16.00
2022-10-05T07:11:27.067Z,16.33
2022-10-05T07:14:12.702Z,16.52
2022-10-05T07:17:02.491Z,15.05
2022-10-05T07:19:43.979Z,22.67
2022-10-05T07:22:47.504Z,15.02
2022-10-05T07:25:27.570Z,13.48
2022-10-05T07:28:23.259Z,13.82
2022-10-05T07:31:13.948Z,12.90
2022-10-05T07:33:53.981Z,18.38
2022-10-05T07:36:55.469Z,12.50
2022-10-05T07:39:59.472Z,12.05
2022-10-05T07:42:50.609Z,13.88
2022-10-05T07:45:32.724Z,12.07
2022-10-05T07:48:17.132Z,12.57
2022-10-05T07:51:05.395Z,12.63
2022-10-05T07:53:42.243Z,13.23
2022-10-05T07:56:18.662Z,20.10
2022-10-05T07:58:51.784Z,19.85
2022-10-05T08:01:27.849Z,19.92
2022-10-05T08:04:37.042Z,13.82
2022-10-05T08:07:13.469Z,13.32
2022-10-05T08:09:50.475Z,20.00
2022-10-05T08:12:31.103Z,19.83
2022-10-05T08:15:11.955Z,16.40
2022-10-05T08:17:57.554Z,20.80
2022-10-05T08:20:58.299Z,20.40
2022-10-05T08:23:25.255Z,13.57
2022-10-05T08:26:10.906Z,20.30
2022-10-05T08:29:13.797Z,18.42
2022-10-05T08:31:45.302Z,12.88
2022-10-05T08:34:27.754Z,12.48
2022-10-05T08:37:24.695Z,12.75
2022-10-05T08:40:21.466Z,13.18
2022-10-05T08:43:06.720Z,18.58
2022-10-05T08:45:56.038Z,22.70
2022-10-05T08:48:57.146Z,31.15
2022-10-05T08:51:42.691Z,14.63
2022-10-05T08:54:19.755Z,15.60
2022-10-05T08:57:14.439Z,15.27
2022-10-05T09:00:07.688Z,15.55
2022-10-05T09:02:45.094Z,16.33
2022-10-05T09:05:33.507Z,16.75
2022-10-05T09:08:25.164Z,11.90
2022-10-05T09:11:31.880Z,16.70
2022-10-05T09:16:42.586Z,14.90
2022-10-05T09:19:22.833Z,15.00
2022-10-05T09:22:14.143Z,13.77
2022-10-05T09:24:51.053Z,13.70
2022-10-05T09:27:19.785Z,13.40
2022-10-05T09:30:12.919Z,11.85
2022-10-05T09:32:57.964Z,9.05
2022-10-05T09:35:52.951Z,11.17
2022-10-05T09:38:29.137Z,13.68
2022-10-05T09:41:14.611Z,13.85
2022-10-05T09:43:44.295Z,14.02
2022-10-05T09:46:30.215Z,14.40
2022-10-05T09:51:41.787Z,14.45
2022-10-05T09:54:14.701Z,13.27
2022-10-05T09:56:48.038Z,14.13
2022-10-05T09:59:43.990Z,14.52
2022-10-05T10:02:42.150Z,14.75
2022-10-05T10:05:55.023Z,13.25
2022-10-05T10:08:53.104Z,14.25
2022-10-05T10:11:31.412Z,14.77
2022-10-05T10:14:22.793Z,15.00
2022-10-05T10:17:11.649Z,14.75
2022-10-05T10:20:17.312Z,15.13
2022-10-05T10:22:44.459Z,17.47
2022-10-05T10:25:34.536Z,15.93
2022-10-05T10:28:28.988Z,17.48
2022-10-05T10:31:33.720Z,17.17
2022-10-05T10:34:03.579Z,21.75
2022-10-05T10:36:40.806Z,37.40
2022-10-05T10:39:41.966Z,20.23
2022-10-05T10:42:53.667Z,18.90
2022-10-05T10:45:58.083Z,17.85
2022-10-05T10:48:34.062Z,17.73
2022-10-05T10:51:14.918Z,17.00
2022-10-05T10:54:04.999Z,18.83
2022-10-05T10:56:53.089Z,18.02
2022-10-05T10:59:44.432Z,17.67
2022-10-05T11:02:29.275Z,19.15
2022-10-05T11:04:59.272Z,19.23
2022-10-05T11:07:44.739Z,18.70
2022-10-05T11:10:30.306Z,20.95
2022-10-05T11:13:12.445Z,22.20
2022-10-05T11:16:01.125Z,22.30
2022-10-05T11:19:06.887Z,23.60
2022-10-05T11:21:48.503Z,23.73
2022-10-05T11:24:48.530Z,23.25
2022-10-05T11:27:30.839Z,24.90
2022-10-05T11:30:19.868Z,23.30
2022-10-05T11:33:01.103Z,23.88
2022-10-05T11:35:41.364Z,25.48
2022-10-05T11:38:48.579Z,25.67
2022-10-05T11:41:41.980Z,24.33
2022-10-05T11:44:38.742Z,23.60
2022-10-05T11:47:39.579Z,24.50
2022-10-05T11:50:34.330Z,24.05
2022-10-05T11:53:19.707Z,23.67
2022-10-05T11:56:00.430Z,24.27
2022-10-05T11:59:05.920Z,21.20
2022-10-05T12:01:55.893Z,23.27
2022-10-05T12:04:56.960Z,23.90
2022-10-05T12:07:50.867Z,20.95
2022-10-05T12:10:34.012Z,22.42
2022-10-05T12:13:31.498Z,21.67
2022-10-05T12:16:12.315Z,20.55
2022-10-05T12:18:51.057Z,22.77
2022-10-05T12:21:36.489Z,20.83
2022-10-05T12:24:27.077Z,19.58
2022-10-05T12:27:06.764Z,20.10
2022-10-05T12:30:03.480Z,17.27
2022-10-05T12:32:51.020Z,20.38
2022-10-05T12:35:46.781Z,20.65
2022-10-05T12:38:25.566Z,19.95
2022-10-05T12:41:04.352Z,18.77
2022-10-05T12:43:55.770Z,18.70
2022-10-05T12:46:30.455Z,20.70
2022-10-05T12:49:19.255Z,18.80
2022-10-05T12:51:59.663Z,16.65
2022-10-05T12:55:04.858Z,16.92
2022-10-05T12:58:00.578Z,18.08
2022-10-05T13:00:31.510Z,18.30
2022-10-05T13:03:03.974Z,18.35
2022-10-05T13:05:39.342Z,17.30
2022-10-05T13:11:17.431Z,15.95
2022-10-05T13:14:03.283Z,16.65
2022-10-05T13:17:05.592Z,16.15
2022-10-05T13:19:47.112Z,20.75
2022-10-05T13:22:20.351Z,20.42
2022-10-05T13:25:17.387Z,20.65
2022-10-05T13:28:12.815Z,21.30
2022-10-05T13:30:45.263Z,20.50
2022-10-05T13:33:38.879Z,19.75
2022-10-05T13:36:09.752Z,20.65
2022-10-05T13:38:58.118Z,19.98
2022-10-05T13:41:34.348Z,18.40
2022-10-05T13:44:25.732Z,20.17
2022-10-05T13:47:20.934Z,19.92
2022-10-05T13:49:59.894Z,18.88
2022-10-05T13:52:58.150Z,17.60
2022-10-05T13:55:36.990Z,15.02
2022-10-05T13:58:26.066Z,15.10
2022-10-05T14:01:02.277Z,14.70
2022-10-05T14:03:37.388Z,14.23
2022-10-05T14:06:27.663Z,14.93
2022-10-05T14:08:55.024Z,14.02
2022-10-05T14:11:30.971Z,14.40
2022-10-05T14:14:14.845Z,16.33
2022-10-05T14:16:57.027Z,16.05
2022-10-05T14:19:24.016Z,14.85
2022-10-05T14:21:58.947Z,15.45
2022-10-05T14:24:45.661Z,17.05
2022-10-05T14:27:21.227Z,15.63
2022-10-05T14:30:18.049Z,14.45
2022-10-05T14:32:59.427Z,15.30
2022-10-05T14:35:31.317Z,14.35
2022-10-05T14:38:07.906Z,15.07
2022-10-05T14:40:37.349Z,14.88
2022-10-05T14:43:19.684Z,24.85
2022-10-05T14:46:27.949Z,15.85
2022-10-05T14:49:27.031Z,15.93
2022-10-05T14:51:55.800Z,14.00
2022-10-05T14:54:49.275Z,14.13
2022-10-05T14:57:35.511Z,14.77
2022-10-05T15:00:18.679Z,15.25
2022-10-05T15:03:10.689Z,15.50
2022-10-05T15:05:59.435Z,14.18
2022-10-05T15:08:33.792Z,15.45
2022-10-05T15:11:07.612Z,15.60
2022-10-05T15:13:47.474Z,16.73
2022-10-05T15:16:32.502Z,17.65
2022-10-05T15:19:20.911Z,16.38
2022-10-05T15:22:20.191Z,17.55
2022-10-05T15:24:58.898Z,14.98
2022-10-05T15:27:58.171Z,18.05
2022-10-05T15:30:25.228Z,16.33
2022-10-05T15:33:34.434Z,15.73
2022-10-05T15:36:05.354Z,15.52
2022-10-05T15:39:02.080Z,15.57
2022-10-05T15:41:55.392Z,16.55
2022-10-05T15:44:54.039Z,17.77
2022-10-05T15:47:23.183Z,15.50
2022-10-05T15:50:05.437Z,12.77
2022-10-05T15:52:51.085Z,16.08
2022-10-05T16:00:26.936Z,14.68
2022-10-05T16:03:08.683Z,14.48
2022-10-05T16:05:57.073Z,16.15
2022-10-05T16:08:51.715Z,15.77
2022-10-05T16:12:00.603Z,14.70
2022-10-05T16:15:01.668Z,15.57
2022-10-05T16:17:50.983Z,14.98
2022-10-05T16:20:36.148Z,16.58
2022-10-05T16:23:14.289Z,16.55
2022-10-05T16:25:56.029Z,16.27
2022-10-05T16:29:05.017Z,15.13
2022-10-05T16:31:44.078Z,15.57
2022-10-05T16:34:31.027Z,15.93
2022-10-05T16:37:01.076Z,16.35
2022-10-05T16:39:48.524Z,16.77
2022-10-05T16:42:37.717Z,17.00
2022-10-05T16:45:23.709Z,16.45
2022-10-05T16:48:15.227Z,15.82
2022-10-05T16:50:49.520Z,15.52
2022-10-05T16:53:27.708Z,13.07
2022-10-05T16:56:04.048Z,13.88
2022-10-05T16:58:54.525Z,14.77
2022-10-05T17:01:37.150Z,13.98
2022-10-05T17:04:35.284Z,15.65
2022-10-05T17:07:11.312Z,15.65
2022-10-05T17:09:43.939Z,15.07
2022-10-05T17:12:32.666Z,15.50
2022-10-05T17:15:31.855Z,16.35
2022-10-05T17:18:23.507Z,15.32
2022-10-05T17:21:16.975Z,16.20
2022-10-05T17:23:59.415Z,15.98
2022-10-05T17:26:45.209Z,14.23
2022-10-05T17:32:30.435Z,16.30
2022-10-05T17:35:03.081Z,15.23
2022-10-05T17:37:35.673Z,15.77
2022-10-05T17:40:33.832Z,16.23
2022-10-05T17:43:16.378Z,16.20
2022-10-05T17:45:43.322Z,14.27
2022-10-05T17:48:12.371Z,16.60
2022-10-05T17:51:02.352Z,18.33
2022-10-05T17:54:01.933Z,16.35
2022-10-05T17:56:30.969Z,13.90
2022-10-05T17:59:01.565Z,16.85
2022-10-05T18:01:39.248Z,18.05
2022-10-05T18:04:12.178Z,18.17
2022-10-05T18:06:41.615Z,18.23
2022-10-05T18:09:16.905Z,17.92
2022-10-05T18:14:24.582Z,20.13
2022-10-05T18:17:01.366Z,20.33
2022-10-05T18:19:32.213Z,20.83
2022-10-05T18:22:25.092Z,20.15
2022-10-05T18:25:10.267Z,18.02
2022-10-05T18:27:56.332Z,19.23
2022-10-05T18:30:25.427Z,16.95
2022-10-05T18:33:42.928Z,18.10
2022-10-05T18:36:38.031Z,18.10
2022-10-05T18:39:35.848Z,18.45
2022-10-05T18:42:02.859Z,16.75
2022-10-05T18:44:53.147Z,17.63
2022-10-05T18:47:23.179Z,18.92
2022-10-05T18:49:58.365Z,21.10
2022-10-05T18:52:46.585Z,22.15
2022-10-05T18:55:23.979Z,20.52
2022-10-05T18:58:05.944Z,22.20
2022-10-05T19:01:28.009Z,23.58
2022-10-05T19:04:27.115Z,20.42
2022-10-05T19:06:59.538Z,20.60
2022-10-05T19:09:44.375Z,22.95
2022-10-05T19:12:16.364Z,24.40
2022-10-05T19:15:19.068Z,22.40
2022-10-05T19:18:04.656Z,23.38
2022-10-05T19:20:37.828Z,24.17
2022-10-05T19:23:24.848Z,22.92
2022-10-05T19:25:59.614Z,24.17
2022-10-05T19:28:33.157Z,23.30
2022-10-05T19:31:11.950Z,27.73
2022-10-05T19:34:19.141Z,17.20
2022-10-05T19:37:11.082Z,20.85
2022-10-05T19:39:55.143Z,31.58
2022-10-05T19:42:41.384Z,38.67
2022-10-05T19:45:21.258Z,24.40
2022-10-05T19:48:09.344Z,25.17
2022-10-05T19:50:39.961Z,24.80
2022-10-05T19:53:28.278Z,25.02
2022-10-05T19:55:56.327Z,25.05
2022-10-05T19:58:28.722Z,23.98
2022-10-05T20:01:00.264Z,24.65
2022-10-05T20:03:30.031Z,25.75
2022-10-05T20:06:00.341Z,27.50
2022-10-05T20:08:37.695Z,26.40
2022-10-05T20:11:11.804Z,25.83
2022-10-05T20:13:42.003Z,25.10
2022-10-05T20:16:47.327Z,27.55
2022-10-05T20:19:55.655Z,28.08
2022-10-05T20:22:33.163Z,18.83
2022-10-05T20:25:03.678Z,25.95
2022-10-05T20:27:39.540Z,27.17
2022-10-05T20:30:08.558Z,27.45
2022-10-05T20:32:35.626Z,26.75
2022-10-05T20:35:02.613Z,26.83
2022-10-05T20:37:29.846Z,27.00
2022-10-05T20:39:56.777Z,26.88
2022-10-05T20:42:23.934Z,27.40
2022-10-05T20:44:56.486Z,27.20
2022-10-05T20:47:24.434Z,28.50
2022-10-05T20:49:53.392Z,21.48
2022-10-05T20:52:22.239Z,18.85
2022-10-05T20:54:53.697Z,25.85
2022-10-05T20:57:21.286Z,27.63
2022-10-05T20:59:48.554Z,24.98
2022-10-05T21:02:15.517Z,26.73
2022-10-05T21:04:47.460Z,27.10
2022-10-05T21:07:21.166Z,25.23
2022-10-05T21:09:48.239Z,27.40
2022-10-05T21:12:16.585Z,28.60
2022-10-05T21:14:43.692Z,18.77
2022-10-05T21:17:12.022Z,27.73
2022-10-05T21:19:39.441Z,29.30
2022-10-05T21:22:08.744Z,20.05
2022-10-05T21:24:37.604Z,28.35
2022-10-05T21:27:05.438Z,29.38
2022-10-05T21:29:34.248Z,29.00
2022-10-05T21:32:01.668Z,28.95
2022-10-05T21:34:28.965Z,29.70
2022-10-05T21:36:55.965Z,30.88
2022-10-05T21:39:23.635Z,32.67
2022-10-05T21:41:50.766Z,31.55
2022-10-05T21:44:18.225Z,30.42
2022-10-05T21:49:31.516Z,22.50
2022-10-05T21:52:00.216Z,21.90
2022-10-05T21:54:27.424Z,23.40
2022-10-05T21:56:57.274Z,21.75
2022-10-05T21:59:28.445Z,22.08
2022-10-05T22:01:55.464Z,23.65
2022-10-05T22:04:22.410Z,34.30
2022-10-05T22:06:49.408Z,32.70
2022-10-05T22:09:16.474Z,34.35
2022-10-05T22:11:47.760Z,34.92
2022-10-05T22:14:15.626Z,33.17
2022-10-05T22:16:44.617Z,23.60
2022-10-05T22:19:17.982Z,23.05
2022-10-05T22:21:45.061Z,33.28
2022-10-05T22:24:11.979Z,33.45
2022-10-05T22:26:41.287Z,34.22
2022-10-05T22:29:09.576Z,24.02
2022-10-05T22:31:36.999Z,21.65
2022-10-05T22:34:04.138Z,24.35
2022-10-05T22:36:31.313Z,34.20
2022-10-05T22:38:58.441Z,22.80
2022-10-05T22:41:25.535Z,24.05
2022-10-05T22:43:52.745Z,24.35
2022-10-05T22:46:20.267Z,22.88
2022-10-05T22:48:48.038Z,22.23
2022-10-05T22:51:14.977Z,33.53
2022-10-05T22:53:41.952Z,35.55
2022-10-05T22:56:11.960Z,33.92
2022-10-05T22:58:40.200Z,24.10
2022-10-05T23:01:13.139Z,24.00
2022-10-05T23:03:40.650Z,37.58
2022-10-05T23:06:13.498Z,23.40
2022-10-05T23:08:41.738Z,23.30
2022-10-05T23:11:11.322Z,24.95
2022-10-05T23:13:38.592Z,24.45
2022-10-05T23:16:06.535Z,24.83
2022-10-05T23:18:33.975Z,36.40
2022-10-05T23:21:01.691Z,37.42
2022-10-05T23:23:28.722Z,24.33
2022-10-05T23:26:02.605Z,23.27
2022-10-05T23:28:30.181Z,23.13
2022-10-05T23:31:05.760Z,23.13
2022-10-05T23:33:33.975Z,24.95
2022-10-05T23:36:05.821Z,23.98
2022-10-05T23:38:33.032Z,24.80
2022-10-05T23:41:00.109Z,24.58
2022-10-05T23:43:28.269Z,24.38
2022-10-05T23:45:56.335Z,24.63
2022-10-05T23:48:23.387Z,35.63
2022-10-05T23:50:50.716Z,24.38
2022-10-05T23:53:18.276Z,24.15
2022-10-05T23:55:45.628Z,24.92
2022-10-05T23:58:12.807Z,24.15
